Flight Track Log - Related Links

Times and Time Zones

All times are in EDT time to prevent confusion due to time zone crossing. See the THY2467 flight status page for this flight to view local times or setup timezone preferences in your user account.

Time Position Orientation Groundspeed Altitude Reporting Facility
EDT Latitude Longitude Course Direction KTS MPH feet Rate Location/Type
Wed 11:38:00 AM 37.3860 34.6832 311° West  Level Estimated
Wed 11:39:00 AM 37.4435 34.5973 310° West  Level Estimated
Wed 11:40:00 AM 37.5009 34.5113 310° West  Level Estimated
Wed 11:41:00 AM 37.5582 34.4252 310° West  Level Estimated
Wed 11:42:00 AM 37.6154 34.3390 310° West  Level Estimated
Wed 11:43:00 AM 37.6726 34.2526 310° West  Level Estimated
Wed 11:44:00 AM 37.7298 34.1661 310° West  Level Estimated
Wed 11:45:00 AM 37.7868 34.0795 310° West  Level Estimated
Wed 11:46:00 AM 37.8438 33.9927 310° West  Level Estimated
Wed 11:47:00 AM 37.9008 33.9058 310° West  Level Estimated
Wed 11:48:00 AM 37.9577 33.8188 310° West  Level Estimated
Wed 11:49:00 AM 38.0145 33.7316 310° West  Level Estimated
Wed 11:50:00 AM 38.0712 33.6443 310° West  Level Estimated
Wed 11:51:00 AM 38.1279 33.5568 310° West  Level Estimated
Wed 11:52:00 AM 38.1845 33.4692 309° West  Level Estimated
Wed 11:53:00 AM 38.2411 33.3815 309° West  Level Estimated
Wed 11:54:00 AM 38.2976 33.2937 309° West  Level Estimated
Wed 11:55:00 AM 38.3540 33.2057 309° West  Level Estimated
Wed 11:56:00 AM 38.4104 33.1176 309° West  Level Estimated
Wed 11:57:00 AM 38.4666 33.0293 309° West  Level Estimated
Wed 11:58:00 AM 38.5229 32.9409 309° West  Level Estimated
Wed 11:59:00 AM 38.5790 32.8523 309° West  Level Estimated
Wed 12:00:00 PM 38.6351 32.7637 309° West  Level Estimated
Wed 12:01:00 PM 38.6912 32.6749 309° West  Level Estimated
Wed 12:02:00 PM 38.7471 32.5859 309° West  Level Estimated
Wed 12:03:00 PM 38.8030 32.4968 309° West  Level Estimated
Wed 12:04:00 PM 38.8588 32.4076 309° West  Level Estimated
Wed 12:05:00 PM 38.9146 32.3182 309° West  Level Estimated
Wed 12:06:00 PM 38.9703 32.2286 309° West  Level Estimated
Wed 12:07:00 PM 39.0259 32.1390 309° West  Level Estimated
Wed 12:08:00 PM 39.0815 32.0492 309° West  Level Estimated
Wed 12:09:00 PM 39.1369 31.9592 309° West  Level Estimated
Wed 12:10:00 PM 39.1923 31.8692 308° West  Level Estimated
Wed 12:11:00 PM 39.2477 31.7789 308° West  Level Estimated
Wed 12:12:00 PM 39.3030 31.6886 308° West  Level Estimated
Wed 12:13:00 PM 39.3582 31.5981 308° West  Level Estimated
Wed 12:14:00 PM 39.4133 31.5074 308° West  Level Estimated
Wed 12:15:00 PM 39.4683 31.4166 308° West  Level Estimated
Wed 12:16:00 PM 39.5233 31.3257 308° West  Level Estimated
Wed 12:17:00 PM 39.5783 31.2346 308° West  Level Estimated
Wed 12:18:00 PM 39.6331 31.1434 308° West  Level Estimated
Wed 12:19:00 PM 39.6879 31.0520 308° West  Level Estimated
Wed 12:20:00 PM 39.7426 30.9605 308° West  Level Estimated
Wed 12:21:00 PM 39.7972 30.8688 308° West  Level Estimated
Wed 12:22:00 PM 39.8518 30.7770 308° West  Level Estimated
Wed 12:23:00 PM 39.9063 30.6850 308° West  Level Estimated
Wed 12:24:00 PM 39.9607 30.5929 308° West  Level Estimated
Wed 12:25:00 PM 40.0150 30.5007 308° West  Level Estimated
Wed 12:26:00 PM 40.0693 30.4083 308° West  Level Estimated
Wed 12:27:00 PM 40.1235 30.3158 307° West  Level Estimated
Wed 12:28:00 PM 40.1776 30.2231 307° West  Level Estimated
Wed 12:29:00 PM 40.2317 30.1302 307° West  Level Estimated
Wed 12:30:00 PM 40.2856 30.0372 307° West  Level Estimated
Wed 12:31:00 PM 40.3395 29.9441 307° West  Level Estimated
Wed 12:32:00 PM 40.3934 29.8508 307° West  Level Estimated
Wed 12:33:00 PM 40.4471 29.7574 307° West  Level Estimated
Wed 12:34:00 PM 40.5008 29.6638 307° West  Level Estimated
Wed 12:35:00 PM 40.5544 29.5701 307° West  Level Estimated
Wed 12:36:00 PM 40.6079 29.4762 307° West  Level Estimated
Wed 12:37:00 PM 40.6614 29.3822 307° West  Level Estimated
Wed 12:38:00 PM 40.7147 29.2880 307° West  Level Estimated
Wed 12:39:00 PM 40.7680 29.1936 307° West  Level Estimated
Wed 12:40:00 PM 40.8212 29.0992 307° West  Level Estimated
Wed 12:41:00 PM 40.8744 29.0045 307° West  Level Estimated
Wed 12:42:00 PM 40.9274 28.9097 307° West  Level Estimated
Wed 12:43:00 PM 40.9769 28.8211 306° West  Level Estimated
Wed 12:44:00 PM 40.9769 28.8211 21° North  Level Estimated
Wed 12:45:00 PM 40.9769 28.8211 21° North  Level Estimated
Wed 12:46:00 PM 40.9769 28.8211 21° North  Level Estimated
Wed 12:47:00 PM 40.9769 28.8211 21° North  Level Estimated
Wed 12:48:00 PM 40.9769 28.8211 21° North  Level Estimated
Wed 12:49:00 PM 40.9769 28.8211 21° North  Level Estimated
Wed 12:50:00 PM 40.9769 28.8211 21° North  Level Estimated
Wed 12:51:00 PM 40.9769 28.8211 21° North  Level Estimated
Wed 12:52:00 PM 40.9769 28.8211 21° North  Level Estimated
Wed 12:53:00 PM 40.9769 28.8211 21° North  Level Estimated
Wed 12:54:00 PM 40.9769 28.8211 21° North  Level Estimated
Wed 12:55:00 PM 40.9769 28.8211 21° North  Level Estimated
Wed 12:56:00 PM 40.9769 28.8211 21° North  Level Estimated
Wed 12:57:00 PM 40.9769 28.8211 21° North  Level Estimated
Wed 12:58:00 PM 40.9769 28.8211 21° North  Level Estimated
Wed 12:59:00 PM 40.9769 28.8211 21° North  Level Estimated

Login

Don't have an account? Register now (free) for customized features, flight alerts, and more!